Time;durP1;ratioP1;P1;durP2;ratioP2;P2;SDS_P1;SDS_P2;PMS_P1;PMS_P2;Temp;Humidity;BMP_temperature;BMP_pressure;BME280_temperature;BME280_humidity;BME280_pressure;Samples;Min_cycle;Max_cycle;Signal;HPM_P1;HPM_P2
2024/04/06 00:01:23;;;;;;;4.40;0.50;;;;;;;10.88;100.00;100088.17;106002;1257;61498;-58
2024/04/06 00:03:50;;;;;;;0.70;0.50;;;;;;;10.84;100.00;100092.62;106082;1257;62259;-58
2024/04/06 00:06:19;;;;;;;4.20;0.50;;;;;;;10.80;100.00;100094.60;106078;1257;74367;-58
2024/04/06 00:08:47;;;;;;;0.60;0.50;;;;;;;10.78;100.00;100098.31;105999;1257;65983;-58
2024/04/06 00:11:14;;;;;;;2.00;0.50;;;;;;;10.76;100.00;100104.30;106336;1257;73084;-58
2024/04/06 00:13:41;;;;;;;0.80;0.40;;;;;;;10.74;100.00;100105.84;105974;1257;61315;-58
2024/04/06 00:16:08;;;;;;;2.20;0.60;;;;;;;10.72;100.00;100104.11;106043;1253;61283;-58
2024/04/06 00:18:35;;;;;;;0.90;0.60;;;;;;;10.70;100.00;100105.65;106017;1257;75845;-58
2024/04/06 00:21:02;;;;;;;1.30;0.50;;;;;;;10.68;100.00;100104.48;106402;1256;67381;-58
2024/04/06 00:23:29;;;;;;;3.40;0.50;;;;;;;10.66;100.00;100106.71;106090;1258;72816;-58
2024/04/06 00:25:56;;;;;;;0.70;0.50;;;;;;;10.64;100.00;100108.96;106062;1257;62190;-58
2024/04/06 00:28:22;;;;;;;0.50;0.50;;;;;;;10.61;100.00;100104.95;106409;1259;61351;-58
2024/04/06 00:30:49;;;;;;;1.70;0.60;;;;;;;10.60;100.00;100105.35;106025;1256;74977;-59
2024/04/06 00:33:16;;;;;;;0.60;0.50;;;;;;;10.60;100.00;100109.86;105913;1254;67928;-57
2024/04/06 00:35:43;;;;;;;1.40;0.70;;;;;;;10.59;100.00;100108.96;105927;1258;73110;-59
2024/04/06 00:38:09;;;;;;;0.60;0.50;;;;;;;10.58;100.00;100110.83;105944;1256;61637;-57
2024/04/06 00:40:36;;;;;;;0.70;0.50;;;;;;;10.58;100.00;100110.63;105948;1259;61323;-57
2024/04/06 00:43:03;;;;;;;0.80;0.60;;;;;;;10.58;100.00;100114.04;105987;1257;75081;-57
2024/04/06 00:45:30;;;;;;;0.70;0.50;;;;;;;10.59;100.00;100106.81;106381;1253;66876;-57
2024/04/06 00:47:57;;;;;;;0.40;0.40;;;;;;;10.60;100.00;100115.40;106104;1267;72949;-58
2024/04/06 00:50:24;;;;;;;0.80;0.50;;;;;;;10.61;100.00;100113.23;106160;1256;61328;-58
2024/04/06 00:52:50;;;;;;;0.80;0.50;;;;;;;10.62;100.00;100118.20;106150;1256;61712;-57
2024/04/06 00:55:17;;;;;;;0.60;0.50;;;;;;;10.63;100.00;100116.20;106099;1257;74932;-57
2024/04/06 00:57:44;;;;;;;0.40;0.40;;;;;;;10.63;100.00;100115.08;106049;1253;66888;-57
2024/04/06 01:00:11;;;;;;;1.10;0.60;;;;;;;10.63;100.00;100115.95;106132;1256;73104;-58
2024/04/06 01:02:44;;;;;;;0.90;0.60;;;;;;;10.64;100.00;100120.42;106123;1256;62476;-58
2024/04/06 01:05:11;;;;;;;0.90;0.50;;;;;;;10.64;100.00;100119.71;106013;1253;60014;-58
2024/04/06 01:07:42;;;;;;;1.50;0.50;;;;;;;10.64;100.00;100119.17;106144;1259;75078;-57
2024/04/06 01:10:09;;;;;;;0.60;0.50;;;;;;;10.64;100.00;100115.42;106120;1257;68268;-58
2024/04/06 01:12:36;;;;;;;0.70;0.30;;;;;;;10.61;100.00;100114.81;105973;1253;72843;-58
2024/04/06 01:15:03;;;;;;;1.90;0.40;;;;;;;10.60;100.00;100116.66;106050;1258;61260;-58
2024/04/06 01:17:30;;;;;;;0.60;0.40;;;;;;;10.59;100.00;100117.61;106210;1257;62074;-56
2024/04/06 01:19:57;;;;;;;0.80;0.50;;;;;;;10.58;100.00;100119.06;106151;1259;74912;-57
2024/04/06 01:22:24;;;;;;;0.70;0.40;;;;;;;10.57;100.00;100114.80;106049;1255;66855;-57
2024/04/06 01:24:51;;;;;;;0.60;0.40;;;;;;;10.57;100.00;100111.95;106086;1258;73099;-58
2024/04/06 01:27:18;;;;;;;1.20;0.50;;;;;;;10.55;100.00;100110.02;106116;1258;61297;-57
2024/04/06 01:29:44;;;;;;;0.60;0.50;;;;;;;10.53;100.00;100106.40;106072;1253;61234;-57
2024/04/06 01:32:11;;;;;;;1.80;0.50;;;;;;;10.50;100.00;100101.27;106196;1257;75109;-57
2024/04/06 01:34:38;;;;;;;1.60;0.60;;;;;;;10.47;100.00;100101.98;106086;1253;65270;-58
2024/04/06 01:37:06;;;;;;;0.50;0.40;;;;;;;10.44;100.00;100101.23;106046;1256;73197;-58
2024/04/06 01:39:34;;;;;;;0.90;0.60;;;;;;;10.40;100.00;100096.88;106088;1259;62123;-58
2024/04/06 01:42:01;;;;;;;0.50;0.40;;;;;;;10.35;100.00;100095.29;106059;1256;61159;-58
2024/04/06 01:44:28;;;;;;;0.50;0.50;;;;;;;10.31;100.00;100094.59;106556;1258;75042;-58
2024/04/06 01:46:55;;;;;;;2.60;0.50;;;;;;;10.26;100.00;100091.39;106120;1256;65962;-58
2024/04/06 01:49:22;;;;;;;0.60;0.50;;;;;;;10.21;100.00;100095.86;106401;1257;74462;-57
2024/04/06 01:51:48;;;;;;;2.40;0.50;;;;;;;10.16;100.00;100092.14;105931;1261;61273;-58
2024/04/06 01:54:15;;;;;;;0.70;0.50;;;;;;;10.11;100.00;100095.73;106042;1269;59978;-58
2024/04/06 01:56:42;;;;;;;0.50;0.40;;;;;;;10.07;100.00;100093.36;106153;1258;75576;-57
2024/04/06 01:59:09;;;;;;;1.20;0.90;;;;;;;10.05;100.00;100094.18;106104;1258;67906;-58
2024/04/06 02:01:35;;;;;;;0.70;0.50;;;;;;;10.03;100.00;100097.14;109122;1254;72397;-57
2024/04/06 02:04:02;;;;;;;0.50;0.40;;;;;;;10.02;100.00;100100.77;107733;1256;62289;-57
2024/04/06 02:06:29;;;;;;;0.40;0.40;;;;;;;10.01;100.00;100102.27;106067;1256;61519;-56
2024/04/06 02:08:56;;;;;;;2.30;0.50;;;;;;;9.99;100.00;100101.98;105983;1259;74636;-57
2024/04/06 02:11:23;;;;;;;0.80;0.50;;;;;;;9.95;100.00;100099.95;106110;1259;67038;-57
2024/04/06 02:13:49;;;;;;;0.70;0.50;;;;;;;9.91;100.00;100099.95;109226;1255;73677;-57
2024/04/06 02:16:16;;;;;;;2.20;0.70;;;;;;;9.87;100.00;100100.83;109098;1253;61908;-57
2024/04/06 02:18:43;;;;;;;0.70;0.40;;;;;;;9.83;100.00;100104.20;109133;1257;59493;-56
2024/04/06 02:21:10;;;;;;;0.60;0.50;;;;;;;9.81;100.00;100100.51;109164;1256;74391;-57
2024/04/06 02:23:37;;;;;;;0.80;0.50;;;;;;;9.80;100.00;100106.80;109271;1253;66998;-57
2024/04/06 02:26:04;;;;;;;0.90;0.40;;;;;;;9.78;100.00;100108.52;109092;1253;70987;-57
2024/04/06 02:28:30;;;;;;;1.20;0.50;;;;;;;9.77;100.00;100108.39;109004;1253;62072;-57
2024/04/06 02:30:57;;;;;;;0.70;0.50;;;;;;;9.74;100.00;100109.40;108108;1258;62324;-56
2024/04/06 02:33:24;;;;;;;0.80;0.50;;;;;;;9.73;100.00;100112.68;106420;1256;74541;-56
2024/04/06 02:35:51;;;;;;;0.60;0.40;;;;;;;9.72;100.00;100111.45;106018;1258;64648;-57
2024/04/06 02:38:18;;;;;;;0.60;0.50;;;;;;;9.71;100.00;100105.02;106032;1258;73217;-57
2024/04/06 02:40:46;;;;;;;0.60;0.40;;;;;;;9.70;100.00;100104.89;106046;1256;61241;-56
2024/04/06 02:43:12;;;;;;;0.60;0.50;;;;;;;9.68;100.00;100108.56;106058;1253;61344;-55
2024/04/06 02:45:40;;;;;;;0.50;0.50;;;;;;;9.67;100.00;100110.39;106029;1257;74839;-55
2024/04/06 02:48:07;;;;;;;0.70;0.50;;;;;;;9.65;100.00;100112.08;106345;1254;67999;-56
2024/04/06 02:50:34;;;;;;;1.80;0.60;;;;;;;9.64;100.00;100113.19;106018;1259;73632;-56
2024/04/06 02:53:01;;;;;;;3.00;0.60;;;;;;;9.62;100.00;100111.29;105984;1259;61176;-56
2024/04/06 02:55:28;;;;;;;0.50;0.40;;;;;;;9.62;100.00;100111.48;106058;1258;60992;-55
2024/04/06 02:57:55;;;;;;;1.10;0.50;;;;;;;9.61;100.00;100105.78;106303;1259;76230;-56
2024/04/06 03:00:21;;;;;;;0.90;0.50;;;;;;;9.61;100.00;100102.92;106069;1253;65910;-57
2024/04/06 03:02:49;;;;;;;0.40;0.40;;;;;;;9.62;100.00;100099.46;106014;1259;71909;-56
2024/04/06 03:05:16;;;;;;;0.50;0.40;;;;;;;9.62;100.00;100096.95;106017;1258;61282;-56
2024/04/06 03:07:44;;;;;;;0.50;0.40;;;;;;;9.62;100.00;100094.27;106014;1258;60463;-57
2024/04/06 03:10:11;;;;;;;2.10;0.40;;;;;;;9.63;100.00;100095.15;106315;1256;74955;-56
2024/04/06 03:12:38;;;;;;;1.20;0.80;;;;;;;9.63;100.00;100095.48;107160;1253;68016;-56
2024/04/06 03:15:05;;;;;;;1.80;0.50;;;;;;;9.65;100.00;100101.17;106096;1259;73160;-57
2024/04/06 03:17:33;;;;;;;0.50;0.50;;;;;;;9.66;100.00;100103.45;106008;1258;61861;-56
2024/04/06 03:20:00;;;;;;;0.70;0.50;;;;;;;9.67;100.00;100104.30;105915;1258;61360;-55
2024/04/06 03:22:27;;;;;;;0.80;0.50;;;;;;;9.68;100.00;100104.08;106126;1259;75101;-55
2024/04/06 03:24:54;;;;;;;0.70;0.50;;;;;;;9.68;100.00;100104.82;106130;1258;67562;-55
2024/04/06 03:27:20;;;;;;;2.60;0.60;;;;;;;9.68;100.00;100107.70;105993;1259;72584;-55
2024/04/06 03:29:48;;;;;;;0.90;0.70;;;;;;;9.66;100.00;100102.55;105982;1253;62000;-56
2024/04/06 03:32:14;;;;;;;1.00;0.40;;;;;;;9.63;100.00;100102.84;106070;1259;61702;-55
2024/04/06 03:34:41;;;;;;;0.80;0.70;;;;;;;9.59;100.00;100103.55;106085;1259;75084;-56
2024/04/06 03:37:08;;;;;;;3.10;0.90;;;;;;;9.57;100.00;100108.10;106041;1261;67386;-57
2024/04/06 03:39:34;;;;;;;0.60;0.50;;;;;;;9.55;100.00;100105.49;106189;1253;72964;-56
2024/04/06 03:42:01;;;;;;;0.80;0.60;;;;;;;9.52;100.00;100103.66;106175;1257;60762;-57
2024/04/06 03:44:28;;;;;;;1.10;0.70;;;;;;;9.50;100.00;100105.52;106178;1255;61900;-56
2024/04/06 03:46:55;;;;;;;1.00;0.60;;;;;;;9.49;100.00;100101.77;106460;1257;74976;-57
2024/04/06 03:49:22;;;;;;;1.00;0.50;;;;;;;9.51;100.00;100099.22;106158;1268;67116;-56
2024/04/06 03:51:48;;;;;;;0.90;0.60;;;;;;;9.53;100.00;100098.05;106263;1256;73593;-55
2024/04/06 03:54:15;;;;;;;1.60;0.50;;;;;;;9.56;100.00;100096.70;106077;1256;61311;-56
2024/04/06 03:56:42;;;;;;;0.70;0.60;;;;;;;9.59;100.00;100098.71;106158;1258;61235;-56
2024/04/06 03:59:08;;;;;;;0.80;0.60;;;;;;;9.63;100.00;100096.77;106152;1259;74595;-55
2024/04/06 04:01:35;;;;;;;1.20;0.70;;;;;;;9.66;100.00;100101.13;106491;1258;67364;-56
2024/04/06 04:04:02;;;;;;;0.60;0.50;;;;;;;9.70;100.00;100101.52;106125;1256;72972;-56
2024/04/06 04:06:28;;;;;;;0.70;0.60;;;;;;;9.70;100.00;100098.99;106156;1253;61051;-57
2024/04/06 04:08:55;;;;;;;0.70;0.50;;;;;;;9.69;100.00;100099.06;106149;1257;62003;-57
2024/04/06 04:11:23;;;;;;;0.60;0.50;;;;;;;9.67;100.00;100100.36;106153;1255;74828;-57
2024/04/06 04:13:49;;;;;;;0.90;0.70;;;;;;;9.68;100.00;100103.57;106266;1258;67314;-56
2024/04/06 04:16:16;;;;;;;3.60;0.60;;;;;;;9.69;100.00;100104.27;106157;1253;73070;-57
2024/04/06 04:18:43;;;;;;;3.00;0.80;;;;;;;9.69;100.00;100103.89;106107;1258;61355;-56
2024/04/06 04:21:10;;;;;;;1.00;0.60;;;;;;;9.71;100.00;100102.17;106320;1254;61289;-55
2024/04/06 04:23:37;;;;;;;0.50;0.40;;;;;;;9.74;100.00;100100.27;106193;1257;75099;-57
2024/04/06 04:26:04;;;;;;;1.20;0.60;;;;;;;9.78;100.00;100101.73;106063;1253;67391;-57
2024/04/06 04:28:31;;;;;;;1.20;0.70;;;;;;;9.82;100.00;100103.34;106462;1253;73196;-57
2024/04/06 04:31:10;;;;;;;0.60;0.50;;;;;;;9.87;100.00;100102.06;106700;1255;61202;-56
2024/04/06 04:33:37;;;;;;;0.70;0.60;;;;;;;9.93;100.00;100107.42;106115;1258;61161;-57
2024/04/06 04:38:21;;;;;;;2.20;0.60;;;;;;;10.01;100.00;100113.00;103219;1286;600366;-56
2024/04/06 04:40:47;;;;;;;0.80;0.70;;;;;;;10.00;100.00;100115.71;105240;1279;60248;-56
2024/04/06 04:43:14;;;;;;;1.00;0.60;;;;;;;10.00;100.00;100116.08;105298;1271;59584;-57
2024/04/06 04:45:41;;;;;;;3.00;0.60;;;;;;;10.02;100.00;100114.96;108395;1265;73270;-55
2024/04/06 04:48:08;;;;;;;0.60;0.60;;;;;;;10.05;100.00;100113.91;107882;1266;69831;-57
2024/04/06 04:50:35;;;;;;;0.60;0.60;;;;;;;10.08;100.00;100115.94;107539;1266;72795;-56
2024/04/06 04:53:02;;;;;;;2.50;0.70;;;;;;;10.12;100.00;100116.14;105385;1268;145792;-58
2024/04/06 04:55:29;;;;;;;0.60;0.40;;;;;;;10.17;100.00;100121.13;105401;1269;59829;-56
2024/04/06 04:57:56;;;;;;;3.00;0.60;;;;;;;10.22;100.00;100127.21;105460;1266;73075;-57
2024/04/06 05:00:24;;;;;;;2.30;0.50;;;;;;;10.29;100.00;100122.81;105433;1282;66798;-56
2024/04/06 05:02:51;;;;;;;0.60;0.50;;;;;;;10.36;100.00;100122.16;105455;1280;70915;-56
2024/04/06 05:05:17;;;;;;;0.80;0.50;;;;;;;10.42;100.00;100118.16;105429;1287;60511;-57
2024/04/06 05:07:44;;;;;;;1.30;0.60;;;;;;;10.46;100.00;100119.40;105378;1282;61016;-57
2024/04/06 05:10:11;;;;;;;0.50;0.50;;;;;;;10.53;100.00;100121.29;105354;1269;74487;-56
2024/04/06 05:12:38;;;;;;;0.60;0.60;;;;;;;10.59;100.00;100122.98;105347;1267;67374;-57
2024/04/06 05:15:05;;;;;;;2.20;0.80;;;;;;;10.65;100.00;100126.31;105280;1269;71029;-57
2024/04/06 05:17:34;;;;;;;1.10;0.70;;;;;;;10.71;100.00;100123.38;108391;1265;60720;-57
2024/04/06 05:20:01;;;;;;;2.10;0.70;;;;;;;10.78;100.00;100122.20;108431;1265;59008;-57
2024/04/06 05:22:28;;;;;;;2.90;0.80;;;;;;;10.86;100.00;100127.58;108531;1266;72373;-57
2024/04/06 05:24:55;;;;;;;2.00;0.50;;;;;;;10.93;100.00;100127.41;106242;1266;65785;-57
2024/04/06 05:27:21;;;;;;;1.00;0.50;;;;;;;11.00;100.00;100124.98;105243;1269;72550;-56
2024/04/06 05:29:48;;;;;;;0.90;0.50;;;;;;;11.07;100.00;100124.65;105356;1264;62469;-56
2024/04/06 05:32:15;;;;;;;1.30;0.60;;;;;;;11.14;100.00;100122.55;105365;1269;59257;-55
2024/04/06 05:34:42;;;;;;;0.80;0.50;;;;;;;11.20;100.00;100124.41;105382;1269;73975;-55
2024/04/06 05:37:08;;;;;;;1.30;0.60;;;;;;;11.26;100.00;100125.59;106027;1268;65835;-55
2024/04/06 05:39:35;;;;;;;0.70;0.60;;;;;;;11.35;100.00;100124.29;105292;1265;72877;-57
2024/04/06 05:42:02;;;;;;;1.60;0.60;;;;;;;11.46;100.00;100126.86;105295;1269;61764;-57
2024/04/06 05:44:29;;;;;;;0.80;0.60;;;;;;;11.56;100.00;100129.25;106048;1268;60504;-56
2024/04/06 05:46:56;;;;;;;0.60;0.60;;;;;;;11.63;100.00;100130.71;105119;1272;74197;-55
2024/04/06 05:49:22;;;;;;;3.50;0.60;;;;;;;11.69;100.00;100132.25;105317;1269;67207;-55
2024/04/06 05:51:49;;;;;;;1.20;0.50;;;;;;;11.76;100.00;100131.92;105295;1268;72866;-57
2024/04/06 05:54:16;;;;;;;0.70;0.60;;;;;;;11.85;100.00;100131.85;105279;1266;61678;-56
2024/04/06 05:56:43;;;;;;;1.40;0.60;;;;;;;11.94;100.00;100132.16;105280;1268;59576;-55
2024/04/06 05:59:10;;;;;;;3.00;0.70;;;;;;;12.02;100.00;100128.90;106648;1265;74273;-55
2024/04/06 06:01:37;;;;;;;2.10;0.80;;;;;;;12.11;100.00;100129.90;105383;1278;66764;-55
2024/04/06 06:04:04;;;;;;;1.00;0.80;;;;;;;12.21;100.00;100128.88;105267;1280;74011;-55
2024/04/06 06:06:31;;;;;;;2.90;0.70;;;;;;;12.30;100.00;100130.42;105374;1273;60478;-56
2024/04/06 06:08:58;;;;;;;0.90;0.70;;;;;;;12.38;100.00;100124.75;105315;1267;60525;-56
2024/04/06 06:11:25;;;;;;;1.10;0.70;;;;;;;12.46;100.00;100125.61;105376;1269;74047;-56
2024/04/06 06:13:52;;;;;;;2.00;1.00;;;;;;;12.53;100.00;100123.83;105375;1266;66470;-56
2024/04/06 06:16:19;;;;;;;0.90;0.70;;;;;;;12.60;100.00;100126.01;105623;1267;72932;-55
2024/04/06 06:18:46;;;;;;;0.90;0.70;;;;;;;12.66;100.00;100126.61;105451;1269;60759;-56
2024/04/06 06:21:13;;;;;;;0.80;0.60;;;;;;;12.74;100.00;100126.73;105236;1267;61352;-56
2024/04/06 06:23:40;;;;;;;2.70;0.70;;;;;;;12.84;100.00;100127.66;105203;1283;74164;-56
2024/04/06 06:26:07;;;;;;;0.70;0.50;;;;;;;12.97;100.00;100129.17;105208;1269;67018;-56
2024/04/06 06:28:33;;;;;;;1.00;0.50;;;;;;;13.09;100.00;100121.63;105156;1267;71851;-57
2024/04/06 06:31:03;;;;;;;0.60;0.50;;;;;;;13.25;100.00;100120.30;105205;1266;60885;-55
2024/04/06 06:33:30;;;;;;;3.00;0.70;;;;;;;13.42;100.00;100121.36;105423;1266;60425;-56
2024/04/06 06:35:57;;;;;;;2.70;0.40;;;;;;;13.55;100.00;100119.56;105266;1269;74304;-56
2024/04/06 06:38:26;;;;;;;0.50;0.40;;;;;;;13.68;100.00;100120.10;105295;1269;67164;-56
2024/04/06 06:40:53;;;;;;;1.00;0.40;;;;;;;13.78;100.00;100115.05;105311;1269;73532;-56
2024/04/06 06:43:20;;;;;;;0.40;0.30;;;;;;;13.86;100.00;100114.27;106205;1269;60855;-56
2024/04/06 06:45:47;;;;;;;1.10;0.40;;;;;;;13.93;100.00;100114.91;105443;1269;61521;-56
2024/04/06 06:48:14;;;;;;;0.60;0.30;;;;;;;14.01;100.00;100119.52;105306;1269;74278;-56
2024/04/06 06:50:40;;;;;;;2.60;0.30;;;;;;;14.09;100.00;100120.35;105386;1270;67093;-55
2024/04/06 06:53:07;;;;;;;0.50;0.30;;;;;;;14.17;100.00;100115.71;105300;1269;72067;-55
2024/04/06 06:55:36;;;;;;;0.80;0.30;;;;;;;14.28;100.00;100117.80;105375;1264;60478;-55
2024/04/06 06:58:03;;;;;;;0.70;0.30;;;;;;;14.40;100.00;100111.32;105548;1266;62142;-55
2024/04/06 07:00:29;;;;;;;0.70;0.20;;;;;;;14.51;100.00;100109.80;105407;1269;74349;-53
2024/04/06 07:02:56;;;;;;;1.40;0.30;;;;;;;14.62;100.00;100107.84;105449;1269;66855;-53
2024/04/06 07:05:23;;;;;;;0.80;0.30;;;;;;;14.75;100.00;100107.44;105325;1267;71581;-55
2024/04/06 07:07:54;;;;;;;0.30;0.20;;;;;;;14.91;100.00;100104.70;105238;1269;60549;-55
2024/04/06 07:10:21;;;;;;;0.40;0.30;;;;;;;15.06;100.00;100097.23;105647;1269;60438;-58
2024/04/06 07:12:48;;;;;;;0.60;0.30;;;;;;;15.20;100.00;100095.09;105338;1269;74903;-55
2024/04/06 07:15:14;;;;;;;1.10;0.40;;;;;;;15.32;100.00;100095.68;105341;1269;66686;-55
2024/04/06 07:17:42;;;;;;;1.30;0.40;;;;;;;15.42;100.00;100092.29;105570;1269;72617;-55
2024/04/06 07:20:09;;;;;;;0.70;0.40;;;;;;;15.53;100.00;100092.88;105355;1270;61801;-54
2024/04/06 07:22:38;;;;;;;0.60;0.30;;;;;;;15.60;100.00;100091.33;105539;1269;60539;-56
2024/04/06 07:25:05;;;;;;;0.60;0.30;;;;;;;15.66;100.00;100086.84;105341;1269;72710;-55
2024/04/06 07:27:32;;;;;;;0.90;0.40;;;;;;;15.71;100.00;100089.38;105323;1279;67051;-55
2024/04/06 07:29:58;;;;;;;0.40;0.30;;;;;;;15.77;100.00;100083.95;105977;1257;73024;-55
2024/04/06 07:32:25;;;;;;;0.80;0.20;;;;;;;15.81;100.00;100082.41;105874;1258;60481;-55
2024/04/06 07:34:52;;;;;;;0.50;0.20;;;;;;;15.85;100.00;100084.14;105817;1262;61334;-55
2024/04/06 07:37:19;;;;;;;0.60;0.20;;;;;;;15.88;100.00;100080.31;105994;1262;74289;-55
2024/04/06 07:39:46;;;;;;;0.70;0.30;;;;;;;15.93;100.00;100081.10;105774;1263;66965;-54
2024/04/06 07:42:13;;;;;;;0.80;0.40;;;;;;;15.97;100.00;100083.16;105934;1264;71879;-57
2024/04/06 07:44:39;;;;;;;0.50;0.20;;;;;;;16.03;100.00;100081.12;105855;1269;61612;-54
2024/04/06 07:47:06;;;;;;;0.70;0.30;;;;;;;16.11;100.00;100081.52;106537;1262;60638;-57
2024/04/06 07:49:33;;;;;;;0.80;0.20;;;;;;;16.18;100.00;100075.79;105828;1262;73757;-55
2024/04/06 07:52:00;;;;;;;0.30;0.30;;;;;;;16.24;100.00;100073.77;109252;1254;67138;-54
2024/04/06 07:54:26;;;;;;;0.60;0.30;;;;;;;16.29;100.00;100073.43;109162;1253;72646;-53
2024/04/06 07:56:53;;;;;;;2.20;0.30;;;;;;;16.33;100.00;100064.13;109254;1254;59097;-58
2024/04/06 07:59:20;;;;;;;3.30;0.40;;;;;;;16.37;100.00;100063.67;109234;1254;61234;-54
2024/04/06 08:01:47;;;;;;;0.60;0.20;;;;;;;16.44;100.00;100067.71;109083;1254;73922;-56
2024/04/06 08:04:14;;;;;;;0.20;0.20;;;;;;;16.53;100.00;100065.48;109209;1257;67024;-54
2024/04/06 08:06:40;;;;;;;0.30;0.20;;;;;;;16.61;100.00;100058.94;109219;1254;73452;-55
2024/04/06 08:09:08;;;;;;;0.50;0.20;;;;;;;16.72;100.00;100058.42;109205;1254;58889;-56
2024/04/06 08:11:35;;;;;;;0.40;0.20;;;;;;;16.81;100.00;100052.91;109233;1254;58236;-55
2024/04/06 08:14:02;;;;;;;0.50;0.20;;;;;;;16.89;100.00;100055.77;109212;1255;73934;-57
2024/04/06 08:16:46;;;;;;;0.40;0.20;;;;;;;16.96;100.00;100050.55;109190;1257;65814;-55
2024/04/06 08:19:12;;;;;;;4.10;0.20;;;;;;;17.04;100.00;100048.59;109113;1257;72171;-54
2024/04/06 08:21:40;;;;;;;0.50;0.20;;;;;;;17.10;100.00;100042.48;109159;1254;60326;-57
2024/04/06 08:24:07;;;;;;;0.30;0.20;;;;;;;17.17;100.00;100044.36;109225;1254;58852;-58
2024/04/06 08:26:33;;;;;;;0.50;0.20;;;;;;;17.22;100.00;100045.11;109177;1254;71910;-57
2024/04/06 08:29:00;;;;;;;0.50;0.20;;;;;;;17.27;100.00;100036.73;109117;1254;67099;-59
2024/04/06 08:31:28;;;;;;;0.70;0.20;;;;;;;17.36;100.00;100038.63;108014;1254;72829;-55
2024/04/06 08:33:54;;;;;;;0.40;0.20;;;;;;;17.47;100.00;100043.66;106822;1253;60399;-58
2024/04/06 08:36:21;;;;;;;0.30;0.20;;;;;;;17.57;100.00;100045.30;106161;1259;60463;-58
2024/04/06 08:38:48;;;;;;;0.40;0.10;;;;;;;17.65;100.00;100042.73;106820;1258;73948;-56
2024/04/06 08:41:17;;;;;;;0.60;0.10;;;;;;;17.67;100.00;100043.70;106175;1259;66869;-56
2024/04/06 08:43:44;;;;;;;0.50;0.20;;;;;;;17.73;100.00;100040.86;107766;1259;72999;-54
2024/04/06 08:46:11;;;;;;;1.10;0.20;;;;;;;17.82;100.00;100042.41;106025;1260;61323;-55
2024/04/06 08:48:40;;;;;;;0.50;0.30;;;;;;;17.89;100.00;100042.23;106161;1263;62121;-56
2024/04/06 08:51:07;;;;;;;0.30;0.10;;;;;;;17.93;100.00;100041.05;106124;1255;74419;-54
2024/04/06 08:53:34;;;;;;;0.40;0.10;;;;;;;17.98;100.00;100036.62;106185;1262;67104;-56
2024/04/06 08:56:05;;;;;;;0.30;0.20;;;;;;;18.06;100.00;100035.71;106162;1254;73018;-55
2024/04/06 08:58:34;;;;;;;0.30;0.20;;;;;;;18.14;100.00;100035.48;106237;1254;62079;-58
2024/04/06 09:01:02;;;;;;;0.70;0.30;;;;;;;18.19;100.00;100029.62;106253;1259;61997;-56
2024/04/06 09:03:31;;;;;;;8.80;0.20;;;;;;;18.25;100.00;100026.08;106196;1257;75123;-56
2024/04/06 09:05:58;;;;;;;1.30;0.20;;;;;;;18.36;100.00;100023.27;106403;1254;67456;-57
2024/04/06 09:08:26;;;;;;;0.30;0.20;;;;;;;18.45;100.00;100025.81;106511;1260;72876;-56
2024/04/06 09:10:57;;;;;;;1.30;0.20;;;;;;;18.47;100.00;100031.09;106428;1256;61248;-56
2024/04/06 09:13:24;;;;;;;2.20;0.30;;;;;;;18.46;100.00;100031.20;107081;1254;61256;-58
2024/04/06 09:15:51;;;;;;;17.10;10.30;;;;;;;18.47;100.00;100026.97;107852;1257;75106;-56
2024/04/06 09:18:18;;;;;;;1.80;0.30;;;;;;;18.50;100.00;100025.80;106175;1260;66932;-56
2024/04/06 09:20:51;;;;;;;7.40;5.10;;;;;;;18.49;100.00;100017.91;106287;1257;71898;-54
2024/04/06 09:23:19;;;;;;;1.60;0.90;;;;;;;18.48;100.00;100020.14;106962;1256;62222;-56
2024/04/06 09:25:45;;;;;;;1.00;0.70;;;;;;;18.52;100.00;100013.87;107267;1259;61270;-57
2024/04/06 09:28:14;;;;;;;2.80;0.60;;;;;;;18.58;100.00;100010.16;105989;1262;78742;-56
2024/04/06 09:30:42;;;;;;;2.10;0.80;;;;;;;18.67;100.00;100013.23;106665;1259;67062;-54
2024/04/06 09:33:11;;;;;;;1.00;0.30;;;;;;;18.76;100.00;100010.39;106253;1260;72781;-58
2024/04/06 09:35:38;;;;;;;1.10;0.20;;;;;;;18.76;100.00;100011.06;106504;1259;61243;-55
2024/04/06 09:38:08;;;;;;;0.30;0.20;;;;;;;18.76;100.00;100010.14;106214;1259;61113;-56
2024/04/06 09:40:35;;;;;;;0.40;0.20;;;;;;;18.78;100.00;100001.64;106692;1259;74012;-55
2024/04/06 09:43:02;;;;;;;0.20;0.10;;;;;;;18.79;100.00;99999.02;105950;1260;67659;-56
2024/04/06 09:45:29;;;;;;;0.30;0.10;;;;;;;18.78;100.00;99999.65;106416;1254;72665;-54
2024/04/06 09:47:57;;;;;;;0.70;0.20;;;;;;;18.74;100.00;99990.52;106074;1259;61314;-57
2024/04/06 09:50:24;;;;;;;0.10;0.10;;;;;;;18.71;100.00;99998.92;106191;1256;61301;-55
2024/04/06 09:52:52;;;;;;;0.30;0.10;;;;;;;18.70;100.00;99991.79;106460;1259;74189;-56
2024/04/06 09:55:19;;;;;;;1.00;0.10;;;;;;;18.69;100.00;99986.01;105993;1263;67387;-55
2024/04/06 09:57:45;;;;;;;1.10;0.20;;;;;;;18.70;100.00;99984.83;106041;1268;75134;-57
2024/04/06 10:00:12;;;;;;;1.50;0.10;;;;;;;18.70;100.00;99981.55;107421;1259;61199;-54
2024/04/06 10:02:39;;;;;;;0.20;0.10;;;;;;;18.71;100.00;99978.89;106207;1258;60011;-58
2024/04/06 10:05:06;;;;;;;0.30;0.10;;;;;;;18.73;100.00;99979.30;106274;1260;74734;-59
2024/04/06 10:07:34;;;;;;;0.30;0.10;;;;;;;18.72;100.00;99976.48;106588;1258;66071;-59
2024/04/06 10:10:02;;;;;;;0.30;0.20;;;;;;;18.73;100.00;99972.23;106932;1254;71991;-55
2024/04/06 10:12:47;;;;;;;0.60;0.30;;;;;;;18.74;100.00;99971.80;106167;1257;61419;-56
2024/04/06 10:15:18;;;;;;;0.30;0.20;;;;;;;18.75;100.00;99963.35;106698;1258;61215;-55
2024/04/06 10:17:48;;;;;;;0.60;0.20;;;;;;;18.77;100.00;99969.04;109089;1254;75820;-55
2024/04/06 10:20:22;;;;;;;0.40;0.20;;;;;;;18.78;100.00;99964.96;106542;1258;65975;-59
2024/04/06 10:22:53;;;;;;;1.40;0.30;;;;;;;18.77;100.00;99961.16;109228;1254;72615;-54
2024/04/06 10:25:26;;;;;;;0.50;0.20;;;;;;;18.77;100.00;99959.57;106952;1258;61240;-56
2024/04/06 10:28:04;;;;;;;0.40;0.20;;;;;;;18.78;100.00;99951.70;106518;1260;61237;-55
2024/04/06 10:30:36;;;;;;;0.30;0.20;;;;;;;18.78;100.00;99950.03;108009;1257;73776;-56
2024/04/06 10:33:04;;;;;;;0.40;0.20;;;;;;;18.77;100.00;99948.62;107370;1253;65687;-56
2024/04/06 10:35:31;;;;;;;0.40;0.20;;;;;;;18.76;100.00;99948.71;106272;1260;73628;-56
2024/04/06 10:37:58;;;;;;;0.90;0.20;;;;;;;18.75;100.00;99946.64;106192;1266;62226;-55
2024/04/06 10:40:27;;;;;;;0.40;0.20;;;;;;;18.75;100.00;99944.04;106295;1256;61342;-56
2024/04/06 10:42:54;;;;;;;0.50;0.20;;;;;;;18.75;100.00;99939.52;106662;1252;73347;-56
2024/04/06 10:45:21;;;;;;;0.20;0.10;;;;;;;18.75;100.00;99936.95;106280;1257;67108;-60
2024/04/06 10:47:48;;;;;;;0.50;0.20;;;;;;;18.76;100.00;99933.05;106408;1253;72652;-57
2024/04/06 10:50:15;;;;;;;0.40;0.20;;;;;;;18.79;100.00;99927.55;108904;1253;60200;-58
2024/04/06 10:52:42;;;;;;;0.50;0.10;;;;;;;18.83;100.00;99924.38;109241;1254;59611;-56
2024/04/06 10:55:10;;;;;;;0.30;0.20;;;;;;;18.88;100.00;99920.88;109224;1254;74377;-56
2024/04/06 10:57:37;;;;;;;0.40;0.20;;;;;;;18.95;100.00;99920.33;109134;1255;67051;-58
2024/04/06 11:00:08;;;;;;;0.90;0.20;;;;;;;19.01;100.00;99914.35;109153;1254;73062;-56
2024/04/06 11:02:39;;;;;;;0.40;0.20;;;;;;;19.10;100.00;99906.19;109033;1254;59310;-58
2024/04/06 11:05:08;;;;;;;0.40;0.20;;;;;;;19.22;100.00;99902.95;109227;1253;59031;-60
2024/04/06 11:07:37;;;;;;;0.30;0.10;;;;;;;19.37;100.00;99900.52;109286;1253;75739;-54
2024/04/06 11:10:05;;;;;;;0.30;0.20;;;;;;;19.49;100.00;99898.46;109206;1254;65841;-55
2024/04/06 11:12:32;;;;;;;0.20;0.10;;;;;;;19.59;100.00;99889.59;109237;1254;71405;-58
2024/04/06 11:15:02;;;;;;;1.50;0.20;;;;;;;19.69;100.00;99892.80;109225;1254;60482;-55